Time;durP1;ratioP1;P1;durP2;ratioP2;P2;SDS_P1;SDS_P2;PMS_P1;PMS_P2;Temp;Humidity;BMP_temperature;BMP_pressure;BME280_temperature;BME280_humidity;BME280_pressure;Samples;Min_cycle;Max_cycle;Signal;HPM_P1;HPM_P2
2023/08/27 00:00:55;;;;;;;27.08;16.83;;;;;;;;;;2090771;28;20056;-61
2023/08/27 00:01:55;;;;;;;22.73;14.27;;;;;;;;;;2090617;28;20029;-61
2023/08/27 00:02:56;;;;;;;28.67;17.17;;;;;;;;;;2090549;28;20048;-63
2023/08/27 00:03:57;;;;;;;22.58;14.20;;;;;;;;;;2090680;28;20052;-62
2023/08/27 00:04:57;;;;;;;28.17;16.50;;;;;;;;;;2090635;28;20073;-61
2023/08/27 00:05:58;;;;;;;21.13;13.80;;;;;;;;;;2090736;28;20055;-62
2023/08/27 00:06:59;;;;;;;27.25;15.52;;;;;;;;;;2090660;28;20385;-63
2023/08/27 00:08:00;;;;;;;23.60;13.70;;;;;;;;;;2090558;28;20041;-63
2023/08/27 00:09:00;;;;;;;30.00;17.00;;;;;;;;;;2090605;28;20067;-63
2023/08/27 00:10:01;;;;;;;21.58;13.35;;;;;;;;;;2090511;28;20029;-62
2023/08/27 00:11:04;;;;;;;19.02;14.05;;;;;;;;;;2090707;28;20032;-63
2023/08/27 00:12:04;;;;;;;17.55;13.10;;;;;;;;;;2090793;28;20040;-63
2023/08/27 00:13:05;;;;;;;19.42;12.77;;;;;;;;;;2089922;28;20040;-63
2023/08/27 00:14:06;;;;;;;19.60;13.27;;;;;;;;;;2089948;28;20060;-63
2023/08/27 00:15:07;;;;;;;21.45;14.15;;;;;;;;;;2090416;28;20049;-63
2023/08/27 00:16:09;;;;;;;21.80;14.07;;;;;;;;;;2090618;28;20040;-63
2023/08/27 00:17:10;;;;;;;22.67;15.27;;;;;;;;;;2090627;28;20381;-63
2023/08/27 00:18:11;;;;;;;20.42;14.07;;;;;;;;;;2090904;28;20045;-63
2023/08/27 00:19:11;;;;;;;23.42;14.85;;;;;;;;;;2090582;28;20047;-63
2023/08/27 00:20:12;;;;;;;21.33;15.45;;;;;;;;;;2090193;28;20405;-63
2023/08/27 00:21:13;;;;;;;24.85;16.00;;;;;;;;;;2089795;28;20540;-63
2023/08/27 00:22:13;;;;;;;19.65;14.30;;;;;;;;;;2089979;28;20110;-63
2023/08/27 00:23:15;;;;;;;19.73;13.88;;;;;;;;;;2090438;28;20519;-63
2023/08/27 00:24:15;;;;;;;17.08;12.02;;;;;;;;;;2090262;28;20051;-63
2023/08/27 00:25:16;;;;;;;19.05;11.90;;;;;;;;;;2090597;28;20048;-63
2023/08/27 00:26:17;;;;;;;19.10;13.30;;;;;;;;;;2090350;28;20049;-63
2023/08/27 00:27:18;;;;;;;19.27;14.57;;;;;;;;;;2090380;28;20041;-63
2023/08/27 00:28:19;;;;;;;22.20;13.77;;;;;;;;;;2089194;28;20048;-63
2023/08/27 00:29:19;;;;;;;21.25;14.77;;;;;;;;;;2089479;28;20397;-63
2023/08/27 00:30:20;;;;;;;23.10;13.20;;;;;;;;;;2081531;28;20045;-63
2023/08/27 00:31:21;;;;;;;22.38;14.18;;;;;;;;;;2081531;28;20441;-63
2023/08/27 00:32:22;;;;;;;23.95;15.27;;;;;;;;;;2089737;28;20037;-63
2023/08/27 00:33:22;;;;;;;22.55;15.50;;;;;;;;;;2090711;28;20055;-63
2023/08/27 00:34:33;;;;;;;21.80;15.35;;;;;;;;;;2089634;28;20572;-63
2023/08/27 00:35:33;;;;;;;18.42;12.35;;;;;;;;;;2089444;28;20056;-63
2023/08/27 00:36:34;;;;;;;19.17;12.77;;;;;;;;;;2089817;28;20515;-63
2023/08/27 00:37:35;;;;;;;21.15;15.45;;;;;;;;;;2081464;28;20037;-63
2023/08/27 00:38:35;;;;;;;17.23;12.80;;;;;;;;;;2081709;28;20033;-63
2023/08/27 00:39:36;;;;;;;18.27;13.55;;;;;;;;;;2089841;28;20076;-63
2023/08/27 00:40:37;;;;;;;20.17;14.70;;;;;;;;;;2089814;28;20069;-63
2023/08/27 00:41:38;;;;;;;21.92;14.95;;;;;;;;;;2089834;28;20029;-61
2023/08/27 00:42:39;;;;;;;24.08;14.95;;;;;;;;;;2089340;28;20041;-62
2023/08/27 00:43:41;;;;;;;20.25;13.80;;;;;;;;;;2081627;28;20037;-62
2023/08/27 00:44:42;;;;;;;22.35;14.65;;;;;;;;;;2081596;28;20040;-61
2023/08/27 00:45:43;;;;;;;24.00;15.75;;;;;;;;;;2089796;28;20040;-63
2023/08/27 00:46:43;;;;;;;17.90;13.02;;;;;;;;;;2089985;28;20068;-62
2023/08/27 00:47:44;;;;;;;20.27;13.77;;;;;;;;;;2090401;28;20040;-62
2023/08/27 00:48:45;;;;;;;22.05;14.13;;;;;;;;;;2081564;28;20416;-62
2023/08/27 00:49:46;;;;;;;21.45;13.77;;;;;;;;;;2073461;28;20042;-62
2023/08/27 00:50:47;;;;;;;20.33;14.38;;;;;;;;;;2073144;28;20505;-62
2023/08/27 00:51:48;;;;;;;19.27;12.73;;;;;;;;;;2081494;28;20038;-62
2023/08/27 00:52:49;;;;;;;20.50;13.32;;;;;;;;;;2073202;28;20046;-61
2023/08/27 00:53:50;;;;;;;17.65;13.23;;;;;;;;;;2081626;28;20048;-62
2023/08/27 00:54:51;;;;;;;20.30;14.00;;;;;;;;;;2081324;28;20038;-62
2023/08/27 00:55:51;;;;;;;25.35;14.38;;;;;;;;;;2089502;28;20048;-62
2023/08/27 00:56:52;;;;;;;23.83;13.85;;;;;;;;;;2098152;28;20044;-61
2023/08/27 00:57:53;;;;;;;19.02;13.48;;;;;;;;;;2081656;28;20037;-63
2023/08/27 00:58:54;;;;;;;21.73;14.52;;;;;;;;;;2081501;28;20030;-64
2023/08/27 00:59:56;;;;;;;21.58;15.63;;;;;;;;;;2081333;28;20045;-63
2023/08/27 01:00:56;;;;;;;23.90;15.10;;;;;;;;;;2073339;28;20410;-63
2023/08/27 01:01:57;;;;;;;19.20;13.30;;;;;;;;;;2072539;28;20041;-63
2023/08/27 01:02:58;;;;;;;24.35;15.90;;;;;;;;;;2081388;28;20472;-63
2023/08/27 01:04:00;;;;;;;16.40;10.48;;;;;;;;;;2081315;28;20492;-63
2023/08/27 01:05:00;;;;;;;23.17;14.35;;;;;;;;;;2089714;28;20469;-63
2023/08/27 01:06:01;;;;;;;21.67;13.75;;;;;;;;;;2089500;28;20029;-63
2023/08/27 01:07:04;;;;;;;21.60;14.20;;;;;;;;;;2081470;28;20473;-63
2023/08/27 01:08:23;;;;;;;19.42;13.80;;;;;;;;;;2081657;28;20037;-62
2023/08/27 01:09:30;;;;;;;17.85;12.75;;;;;;;;;;2083861;28;20042;-62
2023/08/27 01:10:41;;;;;;;21.42;13.68;;;;;;;;;;2082429;28;20041;-63
2023/08/27 01:11:45;;;;;;;19.05;12.85;;;;;;;;;;2090153;28;20091;-62
2023/08/27 01:13:04;;;;;;;23.48;14.77;;;;;;;;;;2081206;28;20473;-63
2023/08/27 01:14:05;;;;;;;;;;;;;;;;;;2077718;28;20053;-62
2023/08/27 01:15:06;;;;;;;23.17;13.80;;;;;;;;;;2081370;28;19909;-62
2023/08/27 01:16:07;;;;;;;20.00;14.23;;;;;;;;;;2081503;28;20064;-61
2023/08/27 01:17:08;;;;;;;21.35;13.13;;;;;;;;;;2073326;28;20042;-63
2023/08/27 01:18:10;;;;;;;17.85;13.52;;;;;;;;;;2073410;28;20038;-63
2023/08/27 01:19:13;;;;;;;20.55;14.60;;;;;;;;;;2073117;28;20466;-63
2023/08/27 01:20:14;;;;;;;17.05;12.05;;;;;;;;;;2081676;28;20041;-63
2023/08/27 01:21:17;;;;;;;17.42;13.45;;;;;;;;;;2089096;28;20135;-63
2023/08/27 01:22:18;;;;;;;18.45;12.73;;;;;;;;;;2081312;28;20054;-63
2023/08/27 01:23:19;;;;;;;19.40;13.25;;;;;;;;;;2081214;28;20041;-63
2023/08/27 01:24:19;;;;;;;19.75;13.02;;;;;;;;;;2081225;28;20401;-63
2023/08/27 01:25:24;;;;;;;20.85;14.00;;;;;;;;;;2089256;28;20045;-63
2023/08/27 01:26:27;;;;;;;20.10;13.18;;;;;;;;;;2089187;28;20049;-63
2023/08/27 01:27:29;;;;;;;17.98;13.57;;;;;;;;;;2073359;28;20064;-61
2023/08/27 01:28:30;;;;;;;15.60;13.02;;;;;;;;;;2081657;28;20029;-62
2023/08/27 01:29:35;;;;;;;16.98;12.65;;;;;;;;;;2097202;28;20098;-62
2023/08/27 01:30:43;;;;;;;18.90;13.25;;;;;;;;;;2081079;28;20033;-62
2023/08/27 01:31:45;;;;;;;18.23;13.43;;;;;;;;;;2082369;28;20449;-61
2023/08/27 01:33:06;;;;;;;19.63;13.60;;;;;;;;;;2083106;28;20417;-63
2023/08/27 01:34:08;;;;;;;20.10;12.98;;;;;;;;;;2091229;28;20036;-62
2023/08/27 01:35:10;;;;;;;16.50;12.60;;;;;;;;;;2091450;28;20048;-62
2023/08/27 01:36:11;;;;;;;22.80;13.45;;;;;;;;;;2074628;28;20401;-63
2023/08/27 01:37:14;;;;;;;20.90;13.55;;;;;;;;;;2082933;28;20037;-63
2023/08/27 01:38:15;;;;;;;20.35;14.02;;;;;;;;;;2090921;28;20049;-63
2023/08/27 01:39:16;;;;;;;21.02;14.23;;;;;;;;;;2083127;28;20033;-62
2023/08/27 01:40:18;;;;;;;21.08;14.13;;;;;;;;;;2082705;28;20056;-62
2023/08/27 01:41:19;;;;;;;21.38;14.18;;;;;;;;;;2091119;28;20048;-62
2023/08/27 01:42:19;;;;;;;20.92;13.75;;;;;;;;;;2091678;28;20469;-61
2023/08/27 01:43:20;;;;;;;21.02;14.05;;;;;;;;;;2091900;28;20082;-62
2023/08/27 01:44:21;;;;;;;20.92;14.07;;;;;;;;;;2090555;28;20045;-63
2023/08/27 01:45:22;;;;;;;19.30;13.80;;;;;;;;;;2082786;28;20052;-62
2023/08/27 01:46:23;;;;;;;23.35;14.05;;;;;;;;;;2083150;28;20061;-61
2023/08/27 01:47:24;;;;;;;22.30;14.43;;;;;;;;;;2082803;28;20068;-64
2023/08/27 01:48:24;;;;;;;20.45;14.52;;;;;;;;;;2091102;28;20517;-63
2023/08/27 01:49:25;;;;;;;20.40;14.02;;;;;;;;;;2082456;28;20045;-63
2023/08/27 01:50:26;;;;;;;20.25;13.85;;;;;;;;;;2082732;28;20548;-62
2023/08/27 01:51:27;;;;;;;23.58;14.55;;;;;;;;;;2082424;28;20509;-62
2023/08/27 01:52:28;;;;;;;24.80;14.65;;;;;;;;;;2082688;28;20050;-62
2023/08/27 01:53:29;;;;;;;21.30;14.32;;;;;;;;;;2090977;28;20076;-61
2023/08/27 01:54:32;;;;;;;22.40;15.43;;;;;;;;;;2091663;28;20105;-61
2023/08/27 01:55:34;;;;;;;20.52;15.48;;;;;;;;;;2091658;28;20036;-63
2023/08/27 01:56:34;;;;;;;20.48;14.68;;;;;;;;;;2090554;28;20105;-62
2023/08/27 01:57:35;;;;;;;22.67;16.15;;;;;;;;;;2082878;28;20466;-63
2023/08/27 01:58:36;;;;;;;21.40;14.80;;;;;;;;;;2082474;28;20052;-62
2023/08/27 01:59:37;;;;;;;22.00;15.50;;;;;;;;;;2082806;28;20033;-62
2023/08/27 02:00:37;;;;;;;21.33;14.68;;;;;;;;;;2089977;28;20048;-62
2023/08/27 02:01:38;;;;;;;19.80;14.77;;;;;;;;;;2090597;28;20067;-62
2023/08/27 02:02:39;;;;;;;22.35;14.70;;;;;;;;;;2082381;28;20497;-62
2023/08/27 02:03:40;;;;;;;18.17;12.38;;;;;;;;;;2090390;28;20493;-61
2023/08/27 02:04:40;;;;;;;18.75;12.77;;;;;;;;;;2091820;28;20048;-62
2023/08/27 02:05:41;;;;;;;20.58;14.25;;;;;;;;;;2090588;28;20045;-63
2023/08/27 02:06:42;;;;;;;18.27;13.85;;;;;;;;;;2082911;28;20029;-62
2023/08/27 02:07:42;;;;;;;22.30;15.13;;;;;;;;;;2091070;28;20029;-63
2023/08/27 02:08:43;;;;;;;23.20;15.52;;;;;;;;;;2090562;28;20044;-63
2023/08/27 02:09:44;;;;;;;19.70;14.10;;;;;;;;;;2090511;28;20448;-61
2023/08/27 02:10:47;;;;;;;21.02;14.05;;;;;;;;;;2082940;28;20037;-61
2023/08/27 02:11:49;;;;;;;28.30;16.33;;;;;;;;;;2091181;28;20096;-62
2023/08/27 02:12:50;;;;;;;27.85;16.65;;;;;;;;;;2098637;28;20059;-63
2023/08/27 02:13:50;;;;;;;25.92;17.17;;;;;;;;;;2090226;28;20041;-63
2023/08/27 02:14:51;;;;;;;29.33;17.65;;;;;;;;;;2082709;28;20052;-64
2023/08/27 02:15:52;;;;;;;23.08;16.00;;;;;;;;;;2090563;28;20041;-64
2023/08/27 02:16:53;;;;;;;21.45;13.20;;;;;;;;;;2090876;28;20033;-64
2023/08/27 02:17:53;;;;;;;17.38;13.32;;;;;;;;;;2082715;28;20052;-63
2023/08/27 02:18:54;;;;;;;19.08;13.45;;;;;;;;;;2082564;28;20425;-62
2023/08/27 02:19:55;;;;;;;23.88;15.10;;;;;;;;;;2090809;28;20048;-63
2023/08/27 02:20:56;;;;;;;21.33;14.60;;;;;;;;;;2089769;28;20049;-63
2023/08/27 02:21:57;;;;;;;21.42;13.07;;;;;;;;;;2090919;28;20041;-63
2023/08/27 02:22:58;;;;;;;22.67;15.10;;;;;;;;;;2090774;28;20040;-63
2023/08/27 02:23:59;;;;;;;24.63;16.38;;;;;;;;;;2081963;28;20543;-63
2023/08/27 02:25:00;;;;;;;28.33;16.70;;;;;;;;;;2082755;28;20362;-63
2023/08/27 02:26:01;;;;;;;26.75;16.20;;;;;;;;;;2090432;28;20045;-62
2023/08/27 02:27:02;;;;;;;27.67;15.68;;;;;;;;;;2090468;28;20366;-63
2023/08/27 02:28:04;;;;;;;22.20;15.50;;;;;;;;;;2090136;28;20052;-63
2023/08/27 02:29:04;;;;;;;25.00;15.65;;;;;;;;;;2091142;28;20056;-64
2023/08/27 02:30:05;;;;;;;26.45;16.05;;;;;;;;;;2091176;28;20037;-63
2023/08/27 02:31:08;;;;;;;23.58;15.00;;;;;;;;;;2091643;28;20041;-63
2023/08/27 02:32:08;;;;;;;28.75;15.75;;;;;;;;;;2091316;28;20499;-63
2023/08/27 02:33:09;;;;;;;23.88;16.52;;;;;;;;;;2091433;28;20056;-63
2023/08/27 02:34:10;;;;;;;28.20;17.95;;;;;;;;;;2090423;28;20049;-64
2023/08/27 02:35:11;;;;;;;29.83;18.13;;;;;;;;;;2082416;28;20069;-64
2023/08/27 02:36:11;;;;;;;28.88;18.88;;;;;;;;;;2082365;28;20044;-63
2023/08/27 02:37:12;;;;;;;27.92;18.40;;;;;;;;;;2091008;28;20053;-63
2023/08/27 02:38:13;;;;;;;26.23;16.95;;;;;;;;;;2091207;28;20045;-64
2023/08/27 02:39:14;;;;;;;29.75;19.27;;;;;;;;;;2090109;28;20080;-63
2023/08/27 02:40:17;;;;;;;33.53;20.92;;;;;;;;;;2090611;28;20037;-63
2023/08/27 02:41:19;;;;;;;30.33;19.65;;;;;;;;;;2082600;28;20042;-63
2023/08/27 02:42:20;;;;;;;26.63;18.73;;;;;;;;;;2082057;28;20429;-64
2023/08/27 02:43:21;;;;;;;34.97;21.20;;;;;;;;;;2090010;28;20040;-63
2023/08/27 02:44:21;;;;;;;33.17;21.38;;;;;;;;;;2090334;28;20036;-62
2023/08/27 02:45:22;;;;;;;26.67;18.80;;;;;;;;;;2082539;28;20105;-62
2023/08/27 02:46:23;;;;;;;30.33;18.77;;;;;;;;;;2082143;28;20042;-64
2023/08/27 02:47:24;;;;;;;34.88;22.15;;;;;;;;;;2090581;28;20450;-64
2023/08/27 02:48:24;;;;;;;27.50;18.60;;;;;;;;;;2090586;28;20472;-65
2023/08/27 02:49:25;;;;;;;37.70;21.88;;;;;;;;;;2090607;28;20036;-64
2023/08/27 02:50:27;;;;;;;31.80;19.73;;;;;;;;;;2090455;28;20041;-64
2023/08/27 02:51:28;;;;;;;29.65;19.75;;;;;;;;;;2082163;28;20041;-64
2023/08/27 02:52:28;;;;;;;33.78;20.45;;;;;;;;;;2090596;28;20063;-63
2023/08/27 02:53:29;;;;;;;30.52;19.42;;;;;;;;;;2090199;28;20493;-63
2023/08/27 02:54:30;;;;;;;26.10;18.38;;;;;;;;;;2090295;28;20078;-64
2023/08/27 02:55:33;;;;;;;30.77;20.40;;;;;;;;;;2091763;28;20473;-64
2023/08/27 02:56:34;;;;;;;27.67;18.05;;;;;;;;;;2089895;28;20049;-63
2023/08/27 02:57:36;;;;;;;24.67;18.48;;;;;;;;;;2090538;28;20039;-63
2023/08/27 02:58:37;;;;;;;26.70;17.48;;;;;;;;;;2090485;28;20049;-63
2023/08/27 02:59:38;;;;;;;26.48;17.63;;;;;;;;;;2090566;28;20049;-64
2023/08/27 03:00:39;;;;;;;25.98;17.63;;;;;;;;;;2090165;28;20076;-64
2023/08/27 03:01:39;;;;;;;32.17;19.38;;;;;;;;;;2082367;28;20038;-63
2023/08/27 03:02:40;;;;;;;29.67;17.80;;;;;;;;;;2090548;28;20075;-64
2023/08/27 03:03:41;;;;;;;28.50;19.15;;;;;;;;;;2090437;28;20044;-64
2023/08/27 03:04:42;;;;;;;33.17;19.95;;;;;;;;;;2090069;28;20048;-64
2023/08/27 03:05:43;;;;;;;35.38;20.65;;;;;;;;;;2090450;28;20041;-64
2023/08/27 03:06:43;;;;;;;24.38;14.90;;;;;;;;;;2090142;28;20048;-64
2023/08/27 03:07:44;;;;;;;32.20;19.88;;;;;;;;;;2090408;28;20112;-65
2023/08/27 03:08:45;;;;;;;28.30;18.60;;;;;;;;;;2090127;28;20037;-67
2023/08/27 03:09:46;;;;;;;37.88;22.70;;;;;;;;;;2090404;28;20037;-66
2023/08/27 03:10:47;;;;;;;33.40;20.85;;;;;;;;;;2090502;28;20045;-65
2023/08/27 03:11:48;;;;;;;35.90;21.92;;;;;;;;;;2090344;28;20033;-65
2023/08/27 03:12:48;;;;;;;25.33;17.38;;;;;;;;;;2090361;28;20045;-66
2023/08/27 03:13:49;;;;;;;30.90;19.08;;;;;;;;;;2091132;28;20041;-66
2023/08/27 03:14:50;;;;;;;31.17;18.00;;;;;;;;;;2091108;28;20048;-64
2023/08/27 03:15:50;;;;;;;31.05;19.40;;;;;;;;;;2089743;28;20037;-64
2023/08/27 03:16:51;;;;;;;31.75;20.17;;;;;;;;;;2090311;28;20159;-65
2023/08/27 03:17:52;;;;;;;29.23;17.65;;;;;;;;;;2082063;28;20513;-65
2023/08/27 03:18:54;;;;;;;34.83;21.77;;;;;;;;;;2082028;28;20045;-65
2023/08/27 03:19:55;;;;;;;36.83;21.98;;;;;;;;;;2090301;28;20043;-63
2023/08/27 03:20:57;;;;;;;39.88;23.30;;;;;;;;;;2090595;28;20075;-63
2023/08/27 03:21:58;;;;;;;33.72;20.25;;;;;;;;;;2090945;28;20052;-63
2023/08/27 03:22:59;;;;;;;28.90;19.77;;;;;;;;;;2089902;28;20465;-65
2023/08/27 03:24:00;;;;;;;23.77;16.35;;;;;;;;;;2090450;28;20033;-64
2023/08/27 03:25:01;;;;;;;27.98;18.90;;;;;;;;;;2090260;28;20045;-65
2023/08/27 03:26:03;;;;;;;29.75;19.52;;;;;;;;;;2090564;28;20044;-65
2023/08/27 03:27:04;;;;;;;30.65;19.17;;;;;;;;;;2090275;28;20032;-66
2023/08/27 03:28:05;;;;;;;32.55;21.05;;;;;;;;;;2090311;28;20125;-65
2023/08/27 03:29:06;;;;;;;30.92;20.27;;;;;;;;;;2090509;28;20041;-65
2023/08/27 03:30:07;;;;;;;29.38;18.98;;;;;;;;;;2081971;28;20120;-64
2023/08/27 03:31:08;;;;;;;31.60;21.13;;;;;;;;;;2089394;28;20053;-64
2023/08/27 03:32:11;;;;;;;24.85;16.38;;;;;;;;;;2098546;28;20028;-64
2023/08/27 03:33:12;;;;;;;26.20;17.35;;;;;;;;;;2089614;28;20048;-63
2023/08/27 03:34:13;;;;;;;27.95;17.35;;;;;;;;;;2090378;28;20029;-64
2023/08/27 03:35:13;;;;;;;24.08;15.30;;;;;;;;;;2090796;28;20396;-64
2023/08/27 03:36:14;;;;;;;31.20;19.30;;;;;;;;;;2090771;28;20115;-65
2023/08/27 03:37:15;;;;;;;28.17;17.95;;;;;;;;;;2089607;28;20102;-64
2023/08/27 03:38:16;;;;;;;32.60;19.73;;;;;;;;;;2082093;28;20140;-64
2023/08/27 03:39:17;;;;;;;28.60;18.38;;;;;;;;;;2082319;28;20042;-64
2023/08/27 03:40:17;;;;;;;31.00;17.77;;;;;;;;;;2090230;28;20029;-64
2023/08/27 03:41:18;;;;;;;21.00;15.10;;;;;;;;;;2090753;28;20049;-63
2023/08/27 03:42:20;;;;;;;22.65;16.02;;;;;;;;;;2090258;28;20064;-63
2023/08/27 03:43:20;;;;;;;22.98;14.80;;;;;;;;;;2081528;28;20060;-63
2023/08/27 03:44:21;;;;;;;24.77;15.45;;;;;;;;;;2082319;28;20052;-65
2023/08/27 03:45:22;;;;;;;18.65;12.68;;;;;;;;;;2081691;28;20046;-66
2023/08/27 03:46:24;;;;;;;21.98;14.65;;;;;;;;;;2081928;28;20041;-65
2023/08/27 03:47:25;;;;;;;22.27;14.68;;;;;;;;;;2081891;28;20037;-66
2023/08/27 03:48:25;;;;;;;24.77;14.82;;;;;;;;;;2081827;28;20216;-65
2023/08/27 03:49:26;;;;;;;18.70;12.45;;;;;;;;;;2081525;28;20057;-64
2023/08/27 03:50:27;;;;;;;16.85;10.38;;;;;;;;;;2089917;28;20048;-65
2023/08/27 03:51:28;;;;;;;17.10;11.25;;;;;;;;;;2090212;28;20120;-64
2023/08/27 03:52:29;;;;;;;15.30;9.55;;;;;;;;;;2081707;28;20034;-65
2023/08/27 03:53:29;;;;;;;15.15;9.75;;;;;;;;;;2090085;28;20037;-64
2023/08/27 03:54:32;;;;;;;11.23;8.30;;;;;;;;;;2090128;28;20421;-64
2023/08/27 03:55:36;;;;;;;16.60;10.25;;;;;;;;;;2081917;28;20042;-64
2023/08/27 03:56:37;;;;;;;10.82;7.85;;;;;;;;;;2082074;28;20033;-63
2023/08/27 03:57:38;;;;;;;12.70;8.52;;;;;;;;;;2081757;28;20037;-63
2023/08/27 03:58:39;;;;;;;15.65;9.95;;;;;;;;;;2089999;28;20428;-63
2023/08/27 03:59:39;;;;;;;13.07;10.13;;;;;;;;;;2090598;28;20029;-63
2023/08/27 04:00:40;;;;;;;14.98;9.43;;;;;;;;;;2090900;28;20025;-63
2023/08/27 04:01:41;;;;;;;12.13;9.23;;;;;;;;;;2090699;28;20033;-63
2023/08/27 04:02:43;;;;;;;16.70;10.18;;;;;;;;;;2089651;28;20048;-63
2023/08/27 04:03:43;;;;;;;15.15;9.32;;;;;;;;;;2090285;28;20033;-63
2023/08/27 04:04:44;;;;;;;13.70;8.55;;;;;;;;;;2090048;28;20077;-63
2023/08/27 04:05:49;;;;;;;13.20;8.70;;;;;;;;;;2081066;28;20116;-63
2023/08/27 04:06:50;;;;;;;12.00;8.75;;;;;;;;;;2082370;28;20048;-63
2023/08/27 04:07:50;;;;;;;14.30;9.57;;;;;;;;;;2081995;28;20046;-63
2023/08/27 04:08:51;;;;;;;13.77;9.07;;;;;;;;;;2081383;28;20048;-62
2023/08/27 04:09:52;;;;;;;17.63;10.20;;;;;;;;;;2089725;28;20049;-63
2023/08/27 04:10:53;;;;;;;14.48;10.02;;;;;;;;;;2089620;28;20033;-63
2023/08/27 04:11:54;;;;;;;14.95;9.45;;;;;;;;;;2089975;28;20438;-63
2023/08/27 04:12:54;;;;;;;13.23;8.57;;;;;;;;;;2081988;28;20049;-63
2023/08/27 04:13:55;;;;;;;11.77;8.40;;;;;;;;;;2089216;28;20044;-62
2023/08/27 04:14:57;;;;;;;14.43;8.98;;;;;;;;;;2089867;28;20140;-64
2023/08/27 04:16:02;;;;;;;13.18;7.85;;;;;;;;;;2089854;28;20416;-62
2023/08/27 04:17:04;;;;;;;15.13;9.25;;;;;;;;;;2089921;28;20040;-62
2023/08/27 04:18:05;;;;;;;13.88;8.93;;;;;;;;;;2089168;28;20041;-63
2023/08/27 04:19:06;;;;;;;13.95;8.40;;;;;;;;;;2081304;28;20041;-63
2023/08/27 04:20:08;;;;;;;11.98;8.18;;;;;;;;;;2081786;28;20038;-61
2023/08/27 04:21:09;;;;;;;12.82;8.50;;;;;;;;;;2089806;28;20040;-62
2023/08/27 04:22:10;;;;;;;17.05;8.80;;;;;;;;;;2090398;28;20045;-63
2023/08/27 04:23:11;;;;;;;13.95;8.05;;;;;;;;;;2089525;28;20496;-61
2023/08/27 04:24:12;;;;;;;13.32;8.77;;;;;;;;;;2089698;28;20040;-63
2023/08/27 04:25:13;;;;;;;13.52;8.45;;;;;;;;;;2089805;28;20037;-63
2023/08/27 04:26:14;;;;;;;11.32;8.68;;;;;;;;;;2081546;28;20045;-61
2023/08/27 04:27:16;;;;;;;12.30;9.02;;;;;;;;;;2080911;28;20085;-62
2023/08/27 04:28:17;;;;;;;16.80;9.98;;;;;;;;;;2090067;28;20052;-62
2023/08/27 04:29:18;;;;;;;13.38;9.27;;;;;;;;;;2090337;28;20384;-63
2023/08/27 04:30:18;;;;;;;16.73;10.20;;;;;;;;;;2089518;28;20512;-63
2023/08/27 04:31:19;;;;;;;12.43;8.73;;;;;;;;;;2081453;28;20056;-64
2023/08/27 04:32:20;;;;;;;10.60;7.72;;;;;;;;;;2081323;28;20042;-63
2023/08/27 04:33:20;;;;;;;14.48;10.05;;;;;;;;;;2080858;28;20045;-63
2023/08/27 04:34:21;;;;;;;11.80;8.35;;;;;;;;;;2089609;28;20052;-63
2023/08/27 04:35:22;;;;;;;11.63;8.05;;;;;;;;;;2089274;28;20430;-63
2023/08/27 04:36:23;;;;;;;13.40;8.65;;;;;;;;;;2081068;28;20051;-62
2023/08/27 04:37:23;;;;;;;11.63;7.40;;;;;;;;;;2089704;28;20523;-62
2023/08/27 04:38:24;;;;;;;9.93;7.60;;;;;;;;;;2089704;28;20529;-62
2023/08/27 04:39:26;;;;;;;12.35;7.68;;;;;;;;;;2081399;28;20128;-62
2023/08/27 04:40:28;;;;;;;11.68;8.25;;;;;;;;;;2073480;28;20108;-63
2023/08/27 04:41:28;;;;;;;11.23;8.35;;;;;;;;;;2081466;28;20072;-63
2023/08/27 04:42:29;;;;;;;12.35;8.48;;;;;;;;;;2089372;28;20420;-63
2023/08/27 04:43:30;;;;;;;12.50;8.55;;;;;;;;;;2089823;28;20033;-63
2023/08/27 04:44:31;;;;;;;17.60;9.02;;;;;;;;;;2090254;28;20044;-61
2023/08/27 04:45:32;;;;;;;11.48;8.38;;;;;;;;;;2090239;28;20045;-62
2023/08/27 04:46:33;;;;;;;11.30;8.98;;;;;;;;;;2090473;28;20045;-63
2023/08/27 04:47:33;;;;;;;12.30;9.63;;;;;;;;;;2090798;28;20041;-62
2023/08/27 04:48:34;;;;;;;12.90;8.70;;;;;;;;;;2080797;28;20520;-63
2023/08/27 04:49:36;;;;;;;11.13;8.43;;;;;;;;;;2073362;28;20036;-61
2023/08/27 04:50:38;;;;;;;15.10;9.18;;;;;;;;;;2073409;28;20497;-63
2023/08/27 04:51:39;;;;;;;12.02;8.75;;;;;;;;;;2081662;28;20077;-63
2023/08/27 04:52:40;;;;;;;11.07;8.15;;;;;;;;;;2089715;28;20029;-63
2023/08/27 04:53:40;;;;;;;11.57;9.20;;;;;;;;;;2089495;28;20048;-62
2023/08/27 04:54:41;;;;;;;13.43;9.40;;;;;;;;;;2089602;28;20040;-62
2023/08/27 04:55:42;;;;;;;10.77;8.38;;;;;;;;;;2089617;28;20399;-64
2023/08/27 04:56:43;;;;;;;11.93;9.23;;;;;;;;;;2089616;28;20044;-63
2023/08/27 04:57:44;;;;;;;13.07;8.93;;;;;;;;;;2089303;28;20052;-60
2023/08/27 04:58:44;;;;;;;15.90;10.45;;;;;;;;;;2089602;28;20425;-63
2023/08/27 04:59:45;;;;;;;14.50;9.65;;;;;;;;;;2089601;28;20069;-64
2023/08/27 05:00:46;;;;;;;12.23;9.10;;;;;;;;;;2089829;28;20041;-65
2023/08/27 05:01:47;;;;;;;10.90;8.63;;;;;;;;;;2081427;28;20075;-64
2023/08/27 05:02:48;;;;;;;14.60;9.93;;;;;;;;;;2089749;28;20055;-65
2023/08/27 05:03:48;;;;;;;12.55;9.75;;;;;;;;;;2089935;28;20083;-64
2023/08/27 05:04:49;;;;;;;12.57;9.23;;;;;;;;;;2089774;28;20032;-63
2023/08/27 05:05:53;;;;;;;12.25;8.70;;;;;;;;;;2081428;28;20466;-64
2023/08/27 05:06:55;;;;;;;13.02;9.48;;;;;;;;;;2089374;28;20511;-64
2023/08/27 05:07:56;;;;;;;10.90;8.63;;;;;;;;;;2089308;28;20048;-64
2023/08/27 05:08:56;;;;;;;11.13;8.48;;;;;;;;;;2089393;28;20132;-64
2023/08/27 05:09:57;;;;;;;12.18;9.35;;;;;;;;;;2089271;28;20041;-64
2023/08/27 05:10:58;;;;;;;10.77;8.38;;;;;;;;;;2089148;28;20048;-64
2023/08/27 05:12:00;;;;;;;12.07;9.02;;;;;;;;;;2089505;28;20468;-64
2023/08/27 05:13:00;;;;;;;11.57;8.68;;;;;;;;;;2081331;28;20045;-62
2023/08/27 05:14:01;;;;;;;10.30;7.70;;;;;;;;;;2089536;28;20421;-64
2023/08/27 05:15:03;;;;;;;9.65;7.18;;;;;;;;;;2082085;28;20048;-63
2023/08/27 05:16:04;;;;;;;9.55;8.13;;;;;;;;;;2081132;28;20481;-63
2023/08/27 05:17:07;;;;;;;11.23;8.20;;;;;;;;;;2081406;28;20175;-63
2023/08/27 05:18:11;;;;;;;11.10;8.27;;;;;;;;;;2081399;28;20041;-63
2023/08/27 05:19:12;;;;;;;9.52;7.43;;;;;;;;;;2081235;28;20429;-63
2023/08/27 05:20:14;;;;;;;8.90;6.43;;;;;;;;;;2081501;28;20037;-63
2023/08/27 05:21:15;;;;;;;12.05;7.47;;;;;;;;;;2089166;28;20045;-63
2023/08/27 05:22:16;;;;;;;8.57;6.82;;;;;;;;;;2089549;28;20066;-63
2023/08/27 05:23:17;;;;;;;9.68;7.45;;;;;;;;;;2089444;28;20060;-63
2023/08/27 05:24:18;;;;;;;10.48;7.63;;;;;;;;;;2081354;28;20524;-63
2023/08/27 05:25:19;;;;;;;10.23;7.30;;;;;;;;;;2081218;28;20053;-63
2023/08/27 05:26:20;;;;;;;10.05;7.20;;;;;;;;;;2081219;28;20041;-63
2023/08/27 05:27:20;;;;;;;9.48;6.65;;;;;;;;;;2089184;28;20052;-64
2023/08/27 05:28:22;;;;;;;9.80;7.18;;;;;;;;;;2089491;28;20161;-63
2023/08/27 05:29:22;;;;;;;9.82;7.30;;;;;;;;;;2081251;28;20418;-62
2023/08/27 05:30:24;;;;;;;10.57;7.60;;;;;;;;;;2089679;28;20473;-64
2023/08/27 05:31:24;;;;;;;10.45;7.47;;;;;;;;;;2090371;28;20045;-62
2023/08/27 05:32:27;;;;;;;8.20;6.63;;;;;;;;;;2089358;28;20037;-62
2023/08/27 05:33:28;;;;;;;8.60;6.82;;;;;;;;;;2081590;28;20045;-63
2023/08/27 05:34:30;;;;;;;8.35;6.53;;;;;;;;;;2089575;28;20068;-63
2023/08/27 05:35:30;;;;;;;11.18;8.25;;;;;;;;;;2089047;28;20041;-63
2023/08/27 05:36:31;;;;;;;8.60;6.70;;;;;;;;;;2081354;28;20049;-63
2023/08/27 05:37:32;;;;;;;10.55;7.50;;;;;;;;;;2089404;28;20032;-64
2023/08/27 05:38:32;;;;;;;10.02;7.45;;;;;;;;;;2089128;28;20053;-64
2023/08/27 05:39:33;;;;;;;10.00;6.47;;;;;;;;;;2089113;28;20048;-64
2023/08/27 05:40:34;;;;;;;11.57;7.90;;;;;;;;;;2089506;28;20425;-63
2023/08/27 05:41:35;;;;;;;8.10;6.32;;;;;;;;;;2090135;28;20040;-64
2023/08/27 05:42:35;;;;;;;8.90;6.45;;;;;;;;;;2090043;28;20025;-64
2023/08/27 05:43:36;;;;;;;9.60;5.72;;;;;;;;;;2089369;28;20374;-64
2023/08/27 05:44:37;;;;;;;9.48;6.03;;;;;;;;;;2081150;28;20049;-64
2023/08/27 05:45:38;;;;;;;8.65;6.38;;;;;;;;;;2089625;28;20140;-64
2023/08/27 05:46:39;;;;;;;11.07;6.78;;;;;;;;;;2089366;28;20083;-62
2023/08/27 05:47:40;;;;;;;8.20;6.32;;;;;;;;;;2080352;28;20075;-63
2023/08/27 05:48:41;;;;;;;8.40;5.35;;;;;;;;;;2081335;28;20411;-62
2023/08/27 05:49:42;;;;;;;7.28;6.00;;;;;;;;;;2080583;28;20033;-64
2023/08/27 05:50:44;;;;;;;8.00;6.38;;;;;;;;;;2080807;28;20041;-63
2023/08/27 05:51:45;;;;;;;7.32;5.75;;;;;;;;;;2089677;28;20048;-63
2023/08/27 05:52:46;;;;;;;10.25;6.95;;;;;;;;;;2089343;28;20033;-64
2023/08/27 05:53:47;;;;;;;10.93;7.15;;;;;;;;;;2080975;28;20038;-64
2023/08/27 05:54:48;;;;;;;7.30;5.80;;;;;;;;;;2081103;28;20040;-63
2023/08/27 05:55:48;;;;;;;8.27;6.35;;;;;;;;;;2089094;28;20044;-64
2023/08/27 05:56:49;;;;;;;10.00;6.53;;;;;;;;;;2089526;28;20052;-63
2023/08/27 05:57:50;;;;;;;8.38;6.90;;;;;;;;;;2080568;28;20037;-63
2023/08/27 05:58:51;;;;;;;8.73;6.15;;;;;;;;;;2081419;28;20030;-63
2023/08/27 05:59:52;;;;;;;8.45;7.15;;;;;;;;;;2089330;28;20057;-63